Time;durP1;ratioP1;P1;durP2;ratioP2;P2;SDS_P1;SDS_P2;PMS_P1;PMS_P2;Temp;Humidity;BMP_temperature;BMP_pressure;BME280_temperature;BME280_humidity;BME280_pressure;Samples;Min_cycle;Max_cycle;Signal;HPM_P1;HPM_P2
2023/08/28 00:03:13;;;;;;;6.18;5.57;;;;;;;13.76;95.09;101058.56;5093414;28;20101;-63
2023/08/28 00:05:38;;;;;;;6.85;5.95;;;;;;;13.76;95.76;101056.75;5110420;27;20467;-63
2023/08/28 00:08:07;;;;;;;6.90;5.57;;;;;;;13.73;96.31;101054.28;5113732;28;20450;-63
2023/08/28 00:10:34;;;;;;;6.20;5.60;;;;;;;13.62;96.56;101038.22;5095709;28;20500;-63
2023/08/28 00:13:00;;;;;;;5.43;4.93;;;;;;;13.81;96.00;101061.78;5113810;28;20030;-63
2023/08/28 00:15:25;;;;;;;6.57;5.95;;;;;;;13.64;96.23;101045.13;5114743;27;20019;-63
2023/08/28 00:17:51;;;;;;;6.00;5.45;;;;;;;13.69;96.13;101046.63;5096148;28;20435;-63
2023/08/28 00:20:16;;;;;;;5.25;4.85;;;;;;;13.68;95.74;101053.81;5113189;28;20078;-63
2023/08/28 00:22:42;;;;;;;6.70;5.35;;;;;;;13.79;96.20;101042.31;5113976;28;20012;-63
2023/08/28 00:25:10;;;;;;;6.50;5.90;;;;;;;13.63;96.10;101043.44;5127033;27;20390;-63
2023/08/28 00:27:36;;;;;;;6.72;5.97;;;;;;;13.73;96.40;101040.94;5134043;27;20057;-63
2023/08/28 00:30:03;;;;;;;6.68;5.70;;;;;;;13.62;96.58;101032.88;5132289;27;20458;-62
2023/08/28 00:32:29;;;;;;;5.95;5.45;;;;;;;13.56;96.32;101036.84;5075132;28;20035;-63
2023/08/28 00:34:54;;;;;;;6.85;5.25;;;;;;;13.49;96.42;101037.38;5083949;28;20024;-63
2023/08/28 00:37:22;;;;;;;6.10;5.50;;;;;;;13.55;96.38;101040.44;5113392;28;20031;-63
2023/08/28 00:39:48;;;;;;;5.90;5.40;;;;;;;13.48;96.63;101038.34;5094993;28;20098;-62
2023/08/28 00:42:13;;;;;;;6.25;5.75;;;;;;;13.48;97.08;101031.19;5113296;28;20554;-63
2023/08/28 00:44:38;;;;;;;6.78;5.68;;;;;;;13.45;96.55;101023.41;5124661;27;20027;-63
2023/08/28 00:47:06;;;;;;;7.25;5.75;;;;;;;13.53;96.52;101031.72;5133614;27;20419;-63
2023/08/28 00:49:32;;;;;;;6.70;6.00;;;;;;;13.35;96.81;101017.00;5133356;27;20038;-62
2023/08/28 00:51:58;;;;;;;8.65;6.13;;;;;;;13.34;96.99;101026.84;5114503;27;20023;-63
2023/08/28 00:54:23;;;;;;;7.22;6.63;;;;;;;13.45;96.73;101033.22;5131896;27;20121;-62
2023/08/28 00:56:49;;;;;;;6.97;6.35;;;;;;;13.42;96.53;101025.44;5133528;27;20030;-63
2023/08/28 00:59:15;;;;;;;6.93;6.30;;;;;;;13.42;96.01;101039.66;5115172;27;20466;-63
2023/08/28 01:01:41;;;;;;;8.38;6.22;;;;;;;13.41;95.67;101032.56;5133281;27;20034;-63
2023/08/28 01:04:07;;;;;;;5.88;5.47;;;;;;;13.38;95.84;101032.78;5113420;27;20461;-63
2023/08/28 01:07:19;;;;;;;6.90;6.30;;;;;;;13.37;96.76;101031.09;5091698;28;20127;-63
2023/08/28 01:10:15;;;;;;;6.07;5.65;;;;;;;13.39;96.12;101031.84;5101046;27;20093;-62
2023/08/28 01:12:59;;;;;;;8.85;6.05;;;;;;;13.24;97.16;101040.94;5112488;28;20028;-62
2023/08/28 01:15:26;;;;;;;7.32;6.63;;;;;;;13.13;96.75;101031.00;5094800;28;20474;-63
2023/08/28 01:17:57;;;;;;;7.35;6.70;;;;;;;13.21;97.44;101046.47;5092449;28;20028;-63
2023/08/28 01:20:24;;;;;;;7.22;6.53;;;;;;;13.14;97.42;101030.03;5092615;28;20043;-63
2023/08/28 01:23:04;;;;;;;8.52;7.30;;;;;;;13.17;97.85;101036.00;5095800;28;20031;-63
2023/08/28 01:25:31;;;;;;;7.97;7.28;;;;;;;13.08;97.69;101025.97;5098526;28;20038;-63
2023/08/28 01:27:58;;;;;;;7.68;6.50;;;;;;;13.03;98.08;101029.94;5112565;28;20027;-62
2023/08/28 01:30:25;;;;;;;6.95;6.35;;;;;;;13.00;97.85;101023.03;5093683;28;20023;-63
2023/08/28 01:32:51;;;;;;;8.63;6.90;;;;;;;13.06;98.13;101017.25;5083646;28;20470;-62
2023/08/28 01:35:21;;;;;;;9.13;6.70;;;;;;;12.96;98.36;101024.19;5073448;28;20081;-63
2023/08/28 01:37:55;;;;;;;7.95;7.15;;;;;;;13.08;98.89;101027.81;5092274;28;20084;-63
2023/08/28 01:40:25;;;;;;;7.88;7.13;;;;;;;13.02;98.99;101022.91;5100890;28;20089;-62
2023/08/28 01:42:51;;;;;;;8.13;7.32;;;;;;;12.94;98.56;101020.75;5101648;27;20031;-63
2023/08/28 01:45:17;;;;;;;7.55;6.88;;;;;;;12.95;98.66;101009.97;5111836;28;20051;-64
2023/08/28 01:47:43;;;;;;;7.68;7.07;;;;;;;12.92;98.43;100996.00;5094236;28;20016;-63
2023/08/28 01:50:08;;;;;;;9.02;7.82;;;;;;;12.93;98.98;101006.56;5105154;28;20391;-63
2023/08/28 01:52:34;;;;;;;7.80;7.00;;;;;;;13.05;98.22;101004.84;5091930;28;20024;-63
2023/08/28 01:55:02;;;;;;;8.25;7.63;;;;;;;13.00;97.99;100998.13;5092039;28;20024;-63
2023/08/28 01:57:27;;;;;;;9.07;7.75;;;;;;;12.87;98.39;101004.31;5091760;28;20043;-62
2023/08/28 01:59:53;;;;;;;8.38;7.57;;;;;;;12.91;98.06;101004.94;5063959;28;20035;-62
2023/08/28 02:02:21;;;;;;;8.40;7.60;;;;;;;12.84;98.23;100995.69;5091734;28;20117;-62
2023/08/28 02:04:47;;;;;;;9.48;7.80;;;;;;;12.69;98.65;101000.28;5092032;28;20024;-62
2023/08/28 02:07:12;;;;;;;8.18;7.38;;;;;;;12.94;98.06;100996.72;5102780;28;20044;-62
2023/08/28 02:09:38;;;;;;;8.35;7.22;;;;;;;12.81;98.67;100991.41;5108204;28;20554;-63
2023/08/28 02:12:05;;;;;;;7.90;7.15;;;;;;;12.90;97.89;100988.09;5091767;28;20035;-62
2023/08/28 02:14:30;;;;;;;5.00;4.40;;;;;;;13.04;97.19;100987.13;5082271;28;20398;-62
2023/08/28 02:16:55;;;;;;;8.90;8.20;;;;;;;12.80;97.80;100986.19;5094329;28;20019;-63
2023/08/28 02:19:21;;;;;;;8.63;7.88;;;;;;;12.71;97.76;100985.03;5092031;28;20051;-63
2023/08/28 02:21:49;;;;;;;8.02;7.43;;;;;;;12.87;97.24;100998.13;5076857;28;20020;-62
2023/08/28 02:24:14;;;;;;;8.45;7.68;;;;;;;12.83;97.26;101000.16;5111789;28;20051;-62
2023/08/28 02:26:39;;;;;;;9.32;8.43;;;;;;;12.71;98.03;100996.53;5111873;28;20047;-62
2023/08/28 02:29:05;;;;;;;8.75;7.85;;;;;;;12.78;98.66;101002.31;5109760;28;20035;-62
2023/08/28 02:31:30;;;;;;;8.45;7.70;;;;;;;12.79;98.31;101004.00;5111388;28;20035;-63
2023/08/28 02:33:55;;;;;;;9.63;8.48;;;;;;;12.71;98.35;100998.38;5112537;28;20019;-62
2023/08/28 02:36:21;;;;;;;13.20;8.73;;;;;;;12.60;99.24;100998.25;5111425;28;20035;-63
2023/08/28 02:38:47;;;;;;;8.68;7.85;;;;;;;12.65;98.94;100998.78;5092639;28;20020;-63
2023/08/28 02:41:13;;;;;;;11.93;9.00;;;;;;;12.56;99.55;100980.72;5111901;28;20102;-63
2023/08/28 02:43:38;;;;;;;9.40;8.52;;;;;;;12.57;99.50;100967.28;5093372;28;20102;-63
2023/08/28 02:46:04;;;;;;;9.27;8.38;;;;;;;12.57;99.56;100996.66;5111744;28;20027;-62
2023/08/28 02:48:31;;;;;;;10.57;8.95;;;;;;;12.76;99.51;100998.88;5093539;28;20546;-62
2023/08/28 02:50:57;;;;;;;10.20;8.88;;;;;;;12.65;100.00;100996.13;5084184;28;20027;-62
2023/08/28 02:53:24;;;;;;;9.85;9.02;;;;;;;12.66;100.00;101009.34;5093341;28;20042;-62
2023/08/28 02:56:09;;;;;;;10.38;9.38;;;;;;;12.69;100.00;101011.81;5111469;28;20027;-62
2023/08/28 02:58:35;;;;;;;9.10;8.20;;;;;;;12.57;99.56;100987.78;5114581;28;20066;-62
2023/08/28 03:01:00;;;;;;;8.95;8.20;;;;;;;12.62;98.96;101013.19;5115350;28;20658;-63
2023/08/28 03:03:25;;;;;;;9.02;8.23;;;;;;;12.46;98.94;101010.72;5115284;28;20016;-63
2023/08/28 03:05:51;;;;;;;9.68;8.77;;;;;;;12.53;99.29;101015.63;5096176;28;20063;-63
2023/08/28 03:08:16;;;;;;;10.50;8.63;;;;;;;12.50;99.50;101017.56;5115911;27;20031;-62
2023/08/28 03:10:42;;;;;;;9.85;8.95;;;;;;;12.37;99.38;101010.50;5095956;28;20047;-63
2023/08/28 03:13:09;;;;;;;11.55;8.95;;;;;;;12.37;100.00;101018.50;5094805;28;20028;-63
2023/08/28 03:15:35;;;;;;;12.57;8.98;;;;;;;12.30;100.00;101014.53;5110139;28;20051;-63
2023/08/28 03:18:00;;;;;;;9.80;8.77;;;;;;;12.49;100.00;101015.84;5096502;28;20051;-63
2023/08/28 03:20:26;;;;;;;9.18;8.27;;;;;;;12.44;100.00;101025.09;5114286;28;20440;-63
2023/08/28 03:22:51;;;;;;;10.98;8.90;;;;;;;12.39;100.00;101009.44;5115062;28;20030;-62
2023/08/28 03:25:16;;;;;;;12.27;8.85;;;;;;;12.38;100.00;101020.19;5115080;27;20027;-63
2023/08/28 03:27:42;;;;;;;10.27;9.15;;;;;;;12.42;100.00;101030.56;5096751;28;20022;-63
2023/08/28 03:30:09;;;;;;;10.07;9.15;;;;;;;12.38;100.00;101025.53;5097960;28;20056;-63
2023/08/28 03:32:36;;;;;;;10.80;9.32;;;;;;;12.46;100.00;101028.53;5094357;28;20031;-62
2023/08/28 03:35:02;;;;;;;10.63;8.95;;;;;;;12.45;100.00;101027.69;5093640;28;20115;-63
2023/08/28 03:37:27;;;;;;;10.13;9.32;;;;;;;12.55;100.00;101033.25;5092909;28;20113;-63
2023/08/28 03:39:52;;;;;;;10.15;9.15;;;;;;;12.57;100.00;101036.66;5098490;28;20024;-63
2023/08/28 03:42:18;;;;;;;10.88;9.77;;;;;;;12.53;100.00;101037.84;5090394;28;20016;-63
2023/08/28 03:44:43;;;;;;;11.52;10.52;;;;;;;12.60;100.00;101043.59;5114601;28;20490;-63
2023/08/28 03:47:08;;;;;;;11.07;10.10;;;;;;;12.66;100.00;101046.72;5114484;28;20031;-63
2023/08/28 03:49:34;;;;;;;12.65;11.18;;;;;;;12.72;100.00;101042.75;5113011;28;20040;-63
2023/08/28 03:51:59;;;;;;;11.80;10.70;;;;;;;12.84;100.00;101044.56;5114296;28;20428;-63
2023/08/28 03:54:27;;;;;;;11.52;9.15;;;;;;;12.84;100.00;101041.06;5113741;28;20063;-63
2023/08/28 03:56:54;;;;;;;11.77;8.93;;;;;;;12.85;100.00;101054.31;5114316;28;20023;-63
2023/08/28 03:59:21;;;;;;;11.25;10.02;;;;;;;12.83;100.00;101060.72;5109752;27;20039;-62
2023/08/28 04:01:47;;;;;;;11.90;10.70;;;;;;;12.91;100.00;101061.91;5114261;28;20030;-63
2023/08/28 04:04:12;;;;;;;12.13;10.93;;;;;;;12.85;100.00;101074.78;5113856;28;20020;-63
2023/08/28 04:06:37;;;;;;;11.38;10.30;;;;;;;12.80;100.00;101072.47;5091818;28;20048;-63
2023/08/28 04:09:03;;;;;;;11.80;10.70;;;;;;;12.90;100.00;101075.34;5091658;28;20112;-62
2023/08/28 04:11:28;;;;;;;10.02;6.43;;;;;;;13.06;100.00;101073.31;5093356;28;20127;-63
2023/08/28 04:13:54;;;;;;;12.25;10.50;;;;;;;12.90;100.00;101053.97;5092091;28;20012;-63
2023/08/28 04:16:19;;;;;;;15.00;11.18;;;;;;;13.01;100.00;101063.91;5093838;28;20390;-63
2023/08/28 04:18:45;;;;;;;13.18;11.45;;;;;;;12.89;100.00;101066.47;5076875;28;20016;-63
2023/08/28 04:21:10;;;;;;;11.75;10.55;;;;;;;13.06;100.00;101064.44;5072601;28;20028;-62
2023/08/28 04:23:35;;;;;;;11.48;10.20;;;;;;;13.00;100.00;101070.19;5071698;28;20694;-63
2023/08/28 04:26:01;;;;;;;12.32;10.85;;;;;;;12.98;100.00;101067.66;5072858;28;20028;-63
2023/08/28 04:28:27;;;;;;;11.93;10.75;;;;;;;12.92;100.00;101055.59;5074034;28;20024;-63
2023/08/28 04:30:55;;;;;;;15.05;11.48;;;;;;;13.03;100.00;101072.66;5088495;28;20024;-62
2023/08/28 04:33:21;;;;;;;13.18;11.88;;;;;;;13.03;100.00;101070.88;5086438;28;20164;-62
2023/08/28 04:35:46;;;;;;;12.43;11.23;;;;;;;13.16;100.00;101073.53;5091373;28;20023;-62
2023/08/28 04:38:12;;;;;;;12.35;11.15;;;;;;;13.14;100.00;101075.44;5089714;28;20103;-63
2023/08/28 04:40:37;;;;;;;11.75;10.48;;;;;;;13.14;100.00;101075.44;5092439;28;20111;-62
2023/08/28 04:43:03;;;;;;;12.57;11.40;;;;;;;13.13;100.00;101076.41;5091672;28;20050;-62
2023/08/28 04:45:28;;;;;;;12.23;11.02;;;;;;;13.08;100.00;101073.19;5091391;28;20493;-62
2023/08/28 04:47:56;;;;;;;14.80;11.55;;;;;;;13.06;100.00;101081.34;5091399;28;20074;-63
2023/08/28 04:50:22;;;;;;;12.20;10.88;;;;;;;13.11;100.00;101073.84;5072273;28;20012;-63
2023/08/28 04:52:47;;;;;;;13.10;11.77;;;;;;;13.18;100.00;101068.94;5072195;28;20086;-62
2023/08/28 04:55:13;;;;;;;12.55;11.25;;;;;;;13.22;100.00;101065.06;5072474;28;20016;-62
2023/08/28 04:57:38;;;;;;;12.85;10.82;;;;;;;13.30;100.00;101059.22;5071012;28;20488;-62
2023/08/28 05:00:07;;;;;;;12.80;10.95;;;;;;;13.25;100.00;101056.00;5085428;28;20015;-63
2023/08/28 05:02:33;;;;;;;14.40;10.63;;;;;;;13.26;100.00;101055.06;5093469;28;20051;-63
2023/08/28 05:04:58;;;;;;;12.15;10.60;;;;;;;13.32;100.00;101052.78;5088952;28;20031;-62
2023/08/28 05:07:23;;;;;;;12.00;10.80;;;;;;;13.34;100.00;101050.88;5106116;27;20240;-62
2023/08/28 05:09:49;;;;;;;11.73;10.52;;;;;;;13.39;100.00;101046.06;5092782;28;20023;-63
2023/08/28 05:12:14;;;;;;;11.38;10.40;;;;;;;13.35;100.00;101038.38;5093272;28;20020;-62
2023/08/28 05:14:40;;;;;;;11.25;10.15;;;;;;;13.41;100.00;101053.94;5111128;28;20031;-63
2023/08/28 05:17:06;;;;;;;11.60;10.40;;;;;;;13.34;100.00;101036.66;5093052;28;20050;-62
2023/08/28 05:19:31;;;;;;;12.57;10.95;;;;;;;13.25;100.00;101040.84;5091520;27;20483;-62
2023/08/28 05:21:57;;;;;;;11.43;10.32;;;;;;;13.33;100.00;101046.50;5111422;27;20024;-63
2023/08/28 05:24:22;;;;;;;13.27;10.65;;;;;;;13.39;100.00;101046.06;5111127;27;20055;-62
2023/08/28 05:26:47;;;;;;;12.07;10.43;;;;;;;13.48;100.00;101043.69;5111175;28;20024;-62
2023/08/28 05:29:13;;;;;;;13.02;10.52;;;;;;;13.46;100.00;101054.47;5111960;28;20023;-62
2023/08/28 05:31:38;;;;;;;12.02;10.38;;;;;;;13.56;100.00;101049.31;5101905;27;20083;-63
2023/08/28 05:34:04;;;;;;;12.98;10.07;;;;;;;13.69;100.00;101052.81;5115721;27;20363;-62
2023/08/28 05:36:29;;;;;;;12.48;11.38;;;;;;;13.65;100.00;101048.69;5111746;28;20030;-63
2023/08/28 05:38:54;;;;;;;12.10;10.90;;;;;;;13.62;100.00;101039.06;5093489;28;20031;-63
2023/08/28 05:41:20;;;;;;;13.70;10.85;;;;;;;13.58;100.00;101031.38;5094531;28;20031;-63
2023/08/28 05:43:45;;;;;;;11.15;10.15;;;;;;;13.72;100.00;101038.38;5112275;28;20122;-63
2023/08/28 05:46:13;;;;;;;12.77;10.60;;;;;;;13.73;100.00;101038.25;5093853;28;20027;-62
2023/08/28 05:48:38;;;;;;;12.25;10.50;;;;;;;13.78;100.00;101044.13;5112031;28;20482;-62
2023/08/28 05:51:03;;;;;;;11.32;10.32;;;;;;;13.76;100.00;101040.69;5112524;28;20031;-63
2023/08/28 05:53:29;;;;;;;12.07;10.80;;;;;;;13.74;100.00;101048.00;5112069;28;20032;-63
2023/08/28 05:55:55;;;;;;;12.55;11.35;;;;;;;13.79;100.00;101056.53;5111962;28;20027;-63
2023/08/28 05:58:22;;;;;;;11.10;10.20;;;;;;;13.75;100.00;101060.41;5112670;28;20031;-63
2023/08/28 06:00:47;;;;;;;13.25;11.95;;;;;;;13.70;100.00;101045.66;5126684;28;20066;-63
2023/08/28 06:03:13;;;;;;;12.07;11.13;;;;;;;13.82;100.00;101048.31;5132660;28;20050;-63
2023/08/28 06:05:38;;;;;;;13.38;12.18;;;;;;;13.79;100.00;101051.16;5113366;28;20034;-63
2023/08/28 06:08:04;;;;;;;12.70;11.60;;;;;;;13.84;100.00;101057.03;5113868;28;20043;-63
2023/08/28 06:10:29;;;;;;;13.07;11.77;;;;;;;13.73;100.00;101042.75;5130474;28;20023;-62
2023/08/28 06:12:55;;;;;;;12.48;11.45;;;;;;;13.85;100.00;101056.09;5132563;28;20094;-63
2023/08/28 06:15:23;;;;;;;12.18;11.18;;;;;;;13.75;100.00;101024.78;5107638;28;20023;-63
2023/08/28 06:17:50;;;;;;;13.45;11.75;;;;;;;13.88;100.00;101049.63;5098871;28;20598;-63
2023/08/28 06:20:15;;;;;;;13.13;11.93;;;;;;;13.93;100.00;101047.50;5086272;28;20047;-63
2023/08/28 06:22:45;;;;;;;13.43;12.20;;;;;;;13.96;100.00;101047.25;5109410;28;20045;-63
2023/08/28 06:25:11;;;;;;;13.73;12.50;;;;;;;14.01;100.00;101049.59;5088918;28;20024;-63
2023/08/28 06:27:37;;;;;;;13.32;12.05;;;;;;;14.00;100.00;101040.75;5091218;28;20028;-62
2023/08/28 06:30:06;;;;;;;14.40;13.02;;;;;;;14.10;100.00;101062.28;5097478;28;20085;-63
2023/08/28 06:32:31;;;;;;;13.90;12.48;;;;;;;14.18;100.00;101064.41;5115565;28;20114;-62
2023/08/28 06:34:57;;;;;;;14.15;12.93;;;;;;;14.22;100.00;101058.69;5115089;28;20103;-63
2023/08/28 06:37:25;;;;;;;15.60;14.10;;;;;;;14.34;100.00;101056.91;5110532;28;20364;-62
2023/08/28 06:39:52;;;;;;;18.40;13.82;;;;;;;14.39;100.00;101061.94;5117922;27;20437;-63
2023/08/28 06:42:17;;;;;;;14.52;13.35;;;;;;;14.51;100.00;101061.88;5117877;27;20393;-63
2023/08/28 06:44:43;;;;;;;14.38;13.07;;;;;;;14.68;100.00;101065.94;5117217;27;20024;-63
2023/08/28 06:47:08;;;;;;;15.40;14.02;;;;;;;14.87;100.00;101059.16;5097341;28;20152;-63
2023/08/28 06:49:34;;;;;;;13.43;12.15;;;;;;;15.03;100.00;101054.34;5119903;27;20038;-63
2023/08/28 06:52:02;;;;;;;13.77;12.48;;;;;;;15.32;100.00;101060.03;5115517;27;20039;-63
2023/08/28 06:54:28;;;;;;;12.32;11.32;;;;;;;15.52;100.00;101073.69;5098155;27;20081;-63
2023/08/28 06:56:57;;;;;;;12.75;11.55;;;;;;;15.54;100.00;101074.41;5085491;28;20040;-63
2023/08/28 06:59:23;;;;;;;11.70;10.70;;;;;;;15.53;100.00;101078.94;5089042;28;20505;-63
2023/08/28 07:01:48;;;;;;;11.75;10.48;;;;;;;15.42;100.00;101077.09;5112309;27;20028;-63
2023/08/28 07:04:14;;;;;;;11.38;10.38;;;;;;;15.38;100.00;101082.81;5091014;28;20050;-63
2023/08/28 07:06:41;;;;;;;11.95;10.60;;;;;;;15.40;100.00;101094.28;5106957;27;20050;-63
2023/08/28 07:09:07;;;;;;;12.43;11.25;;;;;;;15.34;100.00;101092.09;5099111;27;20435;-63
2023/08/28 07:11:32;;;;;;;12.50;11.40;;;;;;;15.24;100.00;101083.09;5102819;28;20022;-63
2023/08/28 07:13:58;;;;;;;12.20;10.95;;;;;;;15.26;100.00;101084.63;5106191;27;20032;-63
2023/08/28 07:16:24;;;;;;;13.13;10.90;;;;;;;15.35;100.00;101099.13;5082439;28;20515;-63
2023/08/28 07:18:49;;;;;;;12.35;11.15;;;;;;;15.27;100.00;101102.44;5112119;28;20106;-63
2023/08/28 07:21:15;;;;;;;12.15;11.05;;;;;;;15.38;100.00;101106.94;5097183;28;20020;-63
2023/08/28 07:23:41;;;;;;;12.55;11.25;;;;;;;15.43;100.00;101105.59;5111101;27;20023;-63
2023/08/28 07:26:07;;;;;;;12.15;11.02;;;;;;;15.54;100.00;101098.53;5111511;27;20398;-63
2023/08/28 07:28:33;;;;;;;12.98;11.68;;;;;;;15.60;100.00;101095.38;5112432;28;20023;-63
2023/08/28 07:31:01;;;;;;;13.13;11.82;;;;;;;15.79;100.00;101090.25;5112108;27;20016;-63
2023/08/28 07:33:26;;;;;;;12.90;11.65;;;;;;;15.95;100.00;101083.66;5107744;27;20027;-63
2023/08/28 07:35:54;;;;;;;12.23;11.13;;;;;;;16.07;100.00;101080.81;5113749;28;20046;-63
2023/08/28 07:38:22;;;;;;;14.70;11.15;;;;;;;16.30;100.00;101083.41;5112491;28;20073;-63
2023/08/28 07:40:48;;;;;;;11.02;10.02;;;;;;;16.48;100.00;101079.19;5099459;28;20024;-63
2023/08/28 07:43:13;;;;;;;10.75;9.75;;;;;;;16.50;100.00;101073.66;5107739;28;20116;-63
2023/08/28 07:45:39;;;;;;;11.18;10.18;;;;;;;16.64;99.63;101080.56;5109136;28;20024;-63
2023/08/28 07:48:05;;;;;;;10.60;9.60;;;;;;;16.77;99.85;101078.59;5105693;28;20432;-63
2023/08/28 07:50:30;;;;;;;10.32;9.43;;;;;;;16.82;100.00;101083.53;5104456;27;20015;-63
2023/08/28 07:52:59;;;;;;;10.90;9.80;;;;;;;16.97;99.47;101085.78;5116472;27;20054;-63
2023/08/28 07:55:25;;;;;;;9.27;8.38;;;;;;;17.01;98.12;101084.53;5134366;27;20080;-63
2023/08/28 07:57:54;;;;;;;8.90;7.97;;;;;;;17.03;97.41;101085.25;5116527;27;20027;-63
2023/08/28 08:00:22;;;;;;;10.52;8.80;;;;;;;17.08;97.83;101084.00;5131929;27;20103;-63
2023/08/28 08:02:49;;;;;;;10.23;9.27;;;;;;;17.01;97.70;101095.28;5134810;27;20477;-63
2023/08/28 08:05:15;;;;;;;12.55;9.02;;;;;;;17.02;97.25;101088.06;5133898;27;20080;-63
2023/08/28 08:07:40;;;;;;;9.88;8.88;;;;;;;17.05;97.55;101082.41;5115670;27;20051;-63
2023/08/28 08:10:10;;;;;;;10.90;9.80;;;;;;;17.19;98.50;101084.75;5125442;27;20037;-63
2023/08/28 08:12:38;;;;;;;11.88;9.55;;;;;;;17.22;98.66;101094.41;5113632;28;20031;-63
2023/08/28 08:15:04;;;;;;;10.98;9.27;;;;;;;17.26;98.10;101087.75;5113245;28;20066;-63
2023/08/28 08:17:29;;;;;;;10.93;9.93;;;;;;;17.27;97.98;101086.78;5095309;28;20035;-63
2023/08/28 08:19:55;;;;;;;9.93;8.90;;;;;;;17.28;96.89;101080.41;5129560;27;20028;-63
2023/08/28 08:22:20;;;;;;;9.50;8.60;;;;;;;17.22;96.93;101086.31;5134156;27;20537;-63
2023/08/28 08:24:45;;;;;;;11.55;9.07;;;;;;;17.22;97.21;101080.94;5115485;27;20023;-63
2023/08/28 08:27:11;;;;;;;10.38;8.70;;;;;;;17.13;97.00;101090.66;5115805;27;20015;-63
2023/08/28 08:29:36;;;;;;;10.73;9.70;;;;;;;17.11;98.26;101092.63;5108582;28;20063;-63
2023/08/28 08:32:02;;;;;;;11.23;10.05;;;;;;;17.00;97.95;101076.56;5113498;27;20042;-63
2023/08/28 08:34:28;;;;;;;11.40;10.27;;;;;;;16.96;97.56;101085.91;5094503;28;20390;-63
2023/08/28 08:36:54;;;;;;;10.45;9.43;;;;;;;17.02;99.75;101101.50;5113486;28;20023;-63
2023/08/28 08:39:19;;;;;;;11.38;8.82;;;;;;;16.95;98.88;101095.81;5113673;27;20020;-63
2023/08/28 08:41:47;;;;;;;10.02;9.02;;;;;;;16.95;97.40;101105.69;5113389;28;20030;-62
2023/08/28 08:44:12;;;;;;;11.68;9.95;;;;;;;16.99;98.74;101101.75;5113483;28;20027;-63
2023/08/28 08:46:41;;;;;;;10.10;9.20;;;;;;;16.95;98.41;101093.13;5113154;28;20031;-63
2023/08/28 08:49:11;;;;;;;10.18;9.07;;;;;;;17.10;99.09;101108.91;5117062;27;20490;-63
2023/08/28 08:51:42;;;;;;;9.85;9.05;;;;;;;17.05;96.67;101106.59;5114907;27;20069;-63
2023/08/28 08:54:17;;;;;;;9.45;8.02;;;;;;;17.12;95.57;101109.59;5132985;27;20050;-63
2023/08/28 08:56:48;;;;;;;9.95;9.02;;;;;;;17.12;95.67;101106.91;5133622;27;20508;-63
2023/08/28 08:59:14;;;;;;;8.30;7.60;;;;;;;17.11;94.62;101110.59;5131451;27;20023;-63
2023/08/28 09:01:40;;;;;;;9.32;8.25;;;;;;;17.18;94.65;101101.88;5114615;27;20049;-63
2023/08/28 09:04:08;;;;;;;9.82;7.35;;;;;;;17.32;95.23;101105.19;5114844;27;20027;-63
2023/08/28 09:06:37;;;;;;;8.82;8.00;;;;;;;17.43;94.99;101102.41;5107219;27;20038;-63
2023/08/28 09:09:05;;;;;;;7.95;7.15;;;;;;;17.65;95.16;101102.22;5110442;27;20063;-63
2023/08/28 09:11:31;;;;;;;7.57;6.30;;;;;;;17.64;90.06;101097.81;5133199;27;20038;-63
2023/08/28 09:13:57;;;;;;;7.05;6.38;;;;;;;17.79;91.73;101094.78;5128641;27;20094;-63
2023/08/28 09:16:23;;;;;;;11.57;7.47;;;;;;;17.82;92.36;101092.66;5112297;28;20529;-63
2023/08/28 09:18:49;;;;;;;7.32;6.72;;;;;;;17.89;91.17;101087.59;5105661;28;20501;-63
2023/08/28 09:21:15;;;;;;;6.80;6.20;;;;;;;17.96;90.00;101086.03;5113508;27;20114;-63
2023/08/28 09:23:46;;;;;;;6.85;6.15;;;;;;;18.10;89.23;101092.88;5133259;27;20176;-63
2023/08/28 09:26:16;;;;;;;7.40;6.18;;;;;;;18.15;90.11;101096.84;5132985;27;20031;-63
2023/08/28 09:28:41;;;;;;;6.78;6.05;;;;;;;18.12;87.02;101080.13;5109646;28;20031;-63
2023/08/28 09:31:07;;;;;;;6.32;5.32;;;;;;;18.22;85.72;101083.66;5094078;28;20088;-63
2023/08/28 09:33:45;;;;;;;5.28;4.80;;;;;;;18.25;87.08;101080.69;5112100;28;20101;-63
2023/08/28 09:36:17;;;;;;;3.92;3.55;;;;;;;18.35;84.72;101103.13;5093405;28;20030;-63
2023/08/28 09:38:43;;;;;;;4.15;3.78;;;;;;;18.49;82.92;101093.72;5094823;28;20413;-63
2023/08/28 09:41:10;;;;;;;4.03;3.67;;;;;;;18.59;80.88;101107.22;5112360;28;20050;-63
2023/08/28 09:43:35;;;;;;;5.47;4.07;;;;;;;18.74;81.84;101113.06;5112067;28;20483;-63
2023/08/28 09:46:03;;;;;;;4.20;3.80;;;;;;;18.88;80.03;101106.34;5108785;28;20110;-63
2023/08/28 09:48:31;;;;;;;5.13;3.70;;;;;;;18.97;80.78;101098.28;5113938;28;20023;-62
2023/08/28 09:51:00;;;;;;;5.47;3.60;;;;;;;19.10;79.26;101105.19;5113776;27;20019;-63
2023/08/28 09:53:29;;;;;;;3.05;2.72;;;;;;;19.23;79.50;101119.19;5132594;27;20378;-62
2023/08/28 09:55:54;;;;;;;;;;;;;;;19.49;79.14;101114.84;5133024;28;20168;-62
2023/08/28 09:58:27;;;;;;;4.30;3.83;;;;;;;19.35;77.91;101117.16;5113590;28;19958;-62
2023/08/28 10:00:55;;;;;;;4.90;3.03;;;;;;;19.44;76.11;101114.44;5112859;28;20377;-62
2023/08/28 10:03:22;;;;;;;3.47;3.17;;;;;;;19.70;76.96;101120.03;5132668;28;20052;-63
2023/08/28 10:05:50;;;;;;;4.85;3.47;;;;;;;19.76;75.00;101106.94;5113597;28;20031;-62
2023/08/28 10:08:18;;;;;;;5.10;3.58;;;;;;;20.04;77.29;101105.94;5112361;28;20047;-63
2023/08/28 10:10:47;;;;;;;4.97;3.67;;;;;;;20.14;76.56;101100.44;5116135;28;20027;-63
2023/08/28 10:13:20;;;;;;;4.55;4.03;;;;;;;20.19;76.11;101106.25;5116414;28;20474;-62
2023/08/28 10:15:52;;;;;;;4.60;4.15;;;;;;;20.11;75.85;101111.56;5081358;28;20020;-63
2023/08/28 10:18:25;;;;;;;4.90;4.20;;;;;;;19.92;76.80;101093.66;5117096;27;20031;-63
2023/08/28 10:20:54;;;;;;;4.20;3.78;;;;;;;19.80;73.63;101093.00;5115502;28;20022;-63
2023/08/28 10:23:21;;;;;;;5.65;3.47;;;;;;;20.14;74.54;101090.50;5116482;28;20140;-63
2023/08/28 10:25:51;;;;;;;6.53;3.25;;;;;;;20.10;73.41;101094.50;5097108;28;20470;-62
2023/08/28 10:28:19;;;;;;;3.38;2.80;;;;;;;20.20;71.53;101097.13;5116807;27;20019;-63
2023/08/28 10:30:46;;;;;;;4.28;2.88;;;;;;;20.07;70.77;101096.69;5115826;28;20363;-63
2023/08/28 10:33:13;;;;;;;6.68;3.20;;;;;;;20.10;70.37;101099.91;5080668;28;20031;-63
2023/08/28 10:35:41;;;;;;;3.97;3.00;;;;;;;20.04;70.82;101105.94;5096720;28;20019;-63
2023/08/28 10:38:07;;;;;;;5.13;3.20;;;;;;;19.89;70.71;101100.19;5116488;27;20023;-63
2023/08/28 10:40:34;;;;;;;4.72;3.10;;;;;;;20.04;71.89;101097.81;5114990;28;20111;-63
2023/08/28 10:43:04;;;;;;;3.97;3.40;;;;;;;20.09;69.56;101090.13;5080485;28;20051;-63
2023/08/28 10:45:30;;;;;;;4.15;2.90;;;;;;;20.09;71.24;101098.22;5115457;28;20050;-63
2023/08/28 10:47:55;;;;;;;3.30;2.97;;;;;;;20.00;70.44;101096.44;5102793;27;20381;-63
2023/08/28 10:50:21;;;;;;;3.15;2.95;;;;;;;19.93;72.29;101103.44;5135721;27;20019;-63
2023/08/28 10:52:46;;;;;;;5.85;3.13;;;;;;;19.90;71.85;101101.03;5117572;27;20031;-63
2023/08/28 10:55:17;;;;;;;3.17;2.88;;;;;;;19.87;72.17;101104.88;5114143;27;20030;-63
2023/08/28 10:57:49;;;;;;;3.20;2.90;;;;;;;19.84;72.23;101105.19;5102819;27;20027;-63
2023/08/28 11:00:22;;;;;;;4.28;3.53;;;;;;;19.75;73.41;101103.41;5111567;28;20447;-63
2023/08/28 11:03:15;;;;;;;5.00;3.95;;;;;;;19.79;74.17;101104.78;5130520;27;20027;-63
2023/08/28 11:05:41;;;;;;;8.75;3.42;;;;;;;19.70;73.90;101103.81;5117632;27;20020;-63
2023/08/28 11:08:08;;;;;;;5.75;3.55;;;;;;;19.83;74.00;101094.56;5124207;27;20047;-63
2023/08/28 11:10:35;;;;;;;4.82;4.03;;;;;;;19.87;73.93;101096.78;5135152;27;20092;-63
2023/08/28 11:13:03;;;;;;;5.15;4.25;;;;;;;19.83;75.16;101095.41;5135716;27;20058;-63
2023/08/28 11:15:33;;;;;;;4.47;4.07;;;;;;;19.90;74.11;101080.28;5107003;27;20024;-63